Time;durP1;ratioP1;P1;durP2;ratioP2;P2;SDS_P1;SDS_P2;PMS_P1;PMS_P2;Temp;Humidity;BMP_temperature;BMP_pressure;BME280_temperature;BME280_humidity;BME280_pressure;Samples;Min_cycle;Max_cycle;Signal;HPM_P1;HPM_P2
2022/08/30 04:01:50;;;;;;;1.40;1.40;;;16.40;99.90;;;;;;5340529;23;20550;-70
2022/08/30 04:04:17;;;;;;;0.67;0.67;;;16.40;99.90;;;;;;4993331;28;20461;-70
2022/08/30 04:06:44;;;;;;;1.20;1.20;;;16.40;99.90;;;;;;4992446;28;20895;-70
2022/08/30 04:09:10;;;;;;;1.60;1.40;;;16.40;99.90;;;;;;4986376;28;20537;-70
2022/08/30 04:11:37;;;;;;;0.97;0.97;;;16.40;99.90;;;;;;4962598;28;20489;-70
2022/08/30 04:14:04;;;;;;;1.13;1.13;;;16.40;99.90;;;;;;4955334;28;20492;-70
2022/08/30 04:16:31;;;;;;;1.13;1.13;;;16.40;99.90;;;;;;4954759;28;20466;-71
2022/08/30 04:18:59;;;;;;;1.00;1.00;;;16.40;99.90;;;;;;4970104;28;20495;-71
2022/08/30 04:21:27;;;;;;;2.13;1.13;;;16.40;99.90;;;;;;4971989;28;20483;-70
2022/08/30 04:23:53;;;;;;;1.37;1.17;;;16.40;99.90;;;;;;4954531;28;21006;-71
2022/08/30 04:26:20;;;;;;;1.27;1.20;;;16.40;99.90;;;;;;4954454;28;20466;-70
2022/08/30 04:28:47;;;;;;;1.00;1.00;;;16.40;99.90;;;;;;4963359;28;20549;-69
2022/08/30 04:31:17;;;;;;;0.80;0.80;;;16.40;99.90;;;;;;4972360;28;20527;-70
2022/08/30 04:33:44;;;;;;;0.97;0.93;;;16.40;99.90;;;;;;4954928;28;20899;-69
2022/08/30 04:36:13;;;;;;;0.67;0.67;;;16.40;99.90;;;;;;4954392;28;20561;-69
2022/08/30 04:38:41;;;;;;;0.93;0.93;;;16.40;99.90;;;;;;4965232;28;20494;-70
2022/08/30 04:41:11;;;;;;;2.77;0.97;;;16.40;99.90;;;;;;4966725;28;20850;-70
2022/08/30 04:43:38;;;;;;;0.83;0.70;;;16.40;99.90;;;;;;4954881;28;20527;-69
2022/08/30 04:46:06;;;;;;;0.90;0.90;;;16.40;99.90;;;;;;4954553;28;20469;-70
2022/08/30 04:48:33;;;;;;;1.47;1.37;;;16.40;99.90;;;;;;4966275;28;20470;-70
2022/08/30 04:50:59;;;;;;;1.33;1.33;;;16.40;99.90;;;;;;4959288;28;20489;-70
2022/08/30 04:53:28;;;;;;;0.93;0.93;;;16.40;99.90;;;;;;4954557;28;20466;-70
2022/08/30 04:55:54;;;;;;;0.80;0.80;;;16.40;99.90;;;;;;4954411;28;20577;-70
2022/08/30 04:58:21;;;;;;;0.93;0.93;;;16.40;99.90;;;;;;4963238;28;20485;-70
2022/08/30 05:00:48;;;;;;;1.03;1.03;;;16.40;99.90;;;;;;4960280;28;20496;-70
2022/08/30 05:03:16;;;;;;;1.43;1.43;;;16.40;99.90;;;;;;4954359;28;20469;-70
2022/08/30 05:05:48;;;;;;;1.20;1.20;;;16.40;99.90;;;;;;4956773;28;20467;-70
2022/08/30 05:08:17;;;;;;;1.03;0.80;;;16.40;99.90;;;;;;4971300;28;20475;-71
2022/08/30 05:10:47;;;;;;;1.10;1.10;;;16.40;99.90;;;;;;4965275;28;20487;-71
2022/08/30 05:13:15;;;;;;;1.40;0.83;;;16.40;99.90;;;;;;4973290;28;20469;-70
2022/08/30 05:15:42;;;;;;;1.37;1.37;;;16.40;99.90;;;;;;4977220;28;20476;-71
2022/08/30 05:18:10;;;;;;;1.37;1.37;;;16.40;99.90;;;;;;4976117;28;20843;-70
2022/08/30 05:20:38;;;;;;;2.17;2.17;;;16.50;99.90;;;;;;4976753;28;20484;-70
2022/08/30 05:23:06;;;;;;;1.17;1.17;;;16.50;99.90;;;;;;4977186;28;20467;-71
2022/08/30 05:25:37;;;;;;;1.20;1.20;;;16.50;99.90;;;;;;4978384;28;20476;-70
2022/08/30 05:28:05;;;;;;;1.13;1.13;;;16.50;99.90;;;;;;4977918;28;21023;-70
2022/08/30 05:30:34;;;;;;;0.90;0.90;;;16.50;99.90;;;;;;4974175;28;20990;-70
2022/08/30 05:33:02;;;;;;;4.23;0.90;;;16.50;99.90;;;;;;4957273;28;20466;-70
2022/08/30 05:35:29;;;;;;;0.80;0.80;;;16.60;99.90;;;;;;4956018;28;20481;-70
2022/08/30 05:37:56;;;;;;;1.10;1.10;;;16.50;99.90;;;;;;4957186;28;20488;-72
2022/08/30 05:40:23;;;;;;;1.00;1.00;;;16.60;99.90;;;;;;4971975;28;20556;-71
2022/08/30 05:42:50;;;;;;;0.97;0.97;;;16.60;99.90;;;;;;4953694;28;20472;-70
2022/08/30 05:45:18;;;;;;;1.20;1.20;;;16.60;99.90;;;;;;4953489;28;20471;-71
2022/08/30 05:47:46;;;;;;;5.43;1.40;;;16.60;99.90;;;;;;4954220;28;20478;-71
2022/08/30 05:50:13;;;;;;;1.07;1.07;;;16.50;99.90;;;;;;4963756;28;20555;-70
2022/08/30 05:52:42;;;;;;;1.30;1.20;;;16.60;99.90;;;;;;4961212;28;20834;-70
2022/08/30 05:55:10;;;;;;;1.37;1.37;;;16.60;99.90;;;;;;4953026;28;20466;-70
2022/08/30 05:57:39;;;;;;;0.70;0.70;;;16.60;99.90;;;;;;4953537;28;20509;-70
2022/08/30 06:00:10;;;;;;;0.70;0.70;;;16.70;99.90;;;;;;4961204;28;20548;-70
2022/08/30 06:02:38;;;;;;;1.10;1.10;;;16.70;99.90;;;;;;4971198;28;20497;-70
2022/08/30 06:05:06;;;;;;;1.07;1.07;;;16.70;99.90;;;;;;4970077;28;20473;-70
2022/08/30 06:07:33;;;;;;;1.20;1.20;;;16.80;99.90;;;;;;4956472;28;20901;-71
2022/08/30 06:10:00;;;;;;;1.83;1.60;;;16.80;99.90;;;;;;4958145;28;20479;-70
2022/08/30 06:12:27;;;;;;;1.40;1.40;;;16.90;99.90;;;;;;4953235;28;20491;-69
2022/08/30 06:14:54;;;;;;;1.40;1.30;;;16.90;99.90;;;;;;4964272;28;20463;-69
2022/08/30 06:17:21;;;;;;;1.10;1.10;;;17.00;99.90;;;;;;4960807;28;20844;-69
2022/08/30 06:19:49;;;;;;;2.20;1.67;;;17.00;99.90;;;;;;4963964;28;20492;-70
2022/08/30 06:22:15;;;;;;;1.17;1.07;;;17.10;99.90;;;;;;4971914;28;20487;-70
2022/08/30 06:24:42;;;;;;;1.00;1.00;;;17.20;99.90;;;;;;4972136;28;20476;-69
2022/08/30 06:27:10;;;;;;;1.20;1.20;;;17.30;99.90;;;;;;4971170;28;20470;-69
2022/08/30 06:29:37;;;;;;;1.10;1.03;;;17.40;99.90;;;;;;4962993;28;20873;-69
2022/08/30 06:32:04;;;;;;;0.80;0.80;;;17.50;99.90;;;;;;4972196;28;20841;-70
2022/08/30 06:34:30;;;;;;;0.80;0.80;;;17.50;99.90;;;;;;4971858;28;20473;-70
2022/08/30 06:36:58;;;;;;;1.13;1.13;;;17.50;99.90;;;;;;4971873;28;20496;-70
2022/08/30 06:39:25;;;;;;;0.70;0.70;;;17.50;99.90;;;;;;4969981;28;20488;-69
2022/08/30 06:41:52;;;;;;;0.90;0.90;;;17.50;99.90;;;;;;4958707;28;20538;-69
2022/08/30 06:44:19;;;;;;;1.00;1.00;;;17.60;99.90;;;;;;4951925;28;20530;-70
2022/08/30 06:46:46;;;;;;;1.27;1.27;;;17.60;99.90;;;;;;4952331;28;20911;-70
2022/08/30 06:49:13;;;;;;;0.63;0.63;;;17.70;99.90;;;;;;4968603;28;20530;-70
2022/08/30 06:51:40;;;;;;;1.03;1.03;;;17.80;99.90;;;;;;4952321;28;20491;-70
2022/08/30 06:54:10;;;;;;;0.90;0.90;;;17.90;99.90;;;;;;4952563;28;20471;-69
2022/08/30 06:56:37;;;;;;;0.60;0.60;;;17.90;99.90;;;;;;4952541;28;20472;-70
2022/08/30 06:59:04;;;;;;;0.83;0.83;;;18.00;99.90;;;;;;4966962;28;20485;-70
2022/08/30 07:01:31;;;;;;;1.10;1.10;;;18.00;99.90;;;;;;4953649;28;20495;-70
2022/08/30 07:03:59;;;;;;;0.63;0.63;;;18.10;99.90;;;;;;4952324;28;20475;-70
2022/08/30 07:06:27;;;;;;;0.77;0.70;;;18.10;99.90;;;;;;4967455;28;20474;-70
2022/08/30 07:08:54;;;;;;;0.70;0.70;;;18.10;99.90;;;;;;4962207;28;20467;-70
2022/08/30 07:11:34;;;;;;;0.87;0.87;;;18.20;99.90;;;;;;4960010;28;20488;-70
2022/08/30 07:14:01;;;;;;;0.90;0.90;;;18.30;99.90;;;;;;4952080;28;20467;-70
2022/08/30 07:16:29;;;;;;;0.93;0.93;;;18.30;99.90;;;;;;4952273;28;20556;-70
2022/08/30 07:18:57;;;;;;;1.40;0.60;;;18.40;99.90;;;;;;4964820;28;20513;-70
2022/08/30 07:21:26;;;;;;;0.80;0.80;;;18.30;99.90;;;;;;4962933;28;20491;-70
2022/08/30 07:23:54;;;;;;;0.70;0.70;;;18.30;99.90;;;;;;4971813;28;20475;-70
2022/08/30 07:26:24;;;;;;;1.07;1.07;;;18.40;99.90;;;;;;4971738;28;20470;-70
2022/08/30 07:28:53;;;;;;;0.80;0.80;;;18.50;99.90;;;;;;4970059;28;20471;-69
2022/08/30 07:31:20;;;;;;;0.80;0.80;;;18.60;99.90;;;;;;4962502;28;20494;-70
2022/08/30 07:33:48;;;;;;;0.80;0.80;;;18.70;99.90;;;;;;4952316;28;20475;-70
2022/08/30 07:36:17;;;;;;;0.90;0.90;;;18.70;99.90;;;;;;4951764;28;20548;-70
2022/08/30 07:38:44;;;;;;;0.60;0.60;;;18.70;99.90;;;;;;4962912;28;20491;-70
2022/08/30 07:41:17;;;;;;;0.90;0.90;;;18.70;99.90;;;;;;4963608;28;20483;-70
2022/08/30 07:43:44;;;;;;;1.00;1.00;;;18.90;99.90;;;;;;4955283;28;20558;-70
2022/08/30 07:46:12;;;;;;;1.00;1.00;;;19.00;99.90;;;;;;4954879;28;20523;-69
2022/08/30 07:48:39;;;;;;;0.63;0.63;;;19.10;99.90;;;;;;4965232;28;20506;-69
2022/08/30 07:51:10;;;;;;;1.60;1.40;;;19.20;99.90;;;;;;4966877;28;20485;-69
2022/08/30 07:53:36;;;;;;;0.80;0.80;;;19.40;99.90;;;;;;4954777;28;20469;-70
2022/08/30 07:56:03;;;;;;;0.80;0.80;;;19.50;99.90;;;;;;4954804;28;20479;-69
2022/08/30 07:58:30;;;;;;;0.80;0.80;;;19.70;99.90;;;;;;4959453;28;20469;-69
2022/08/30 08:00:58;;;;;;;0.80;0.80;;;20.10;99.90;;;;;;4965178;28;21025;-70
2022/08/30 08:03:26;;;;;;;0.97;0.70;;;20.10;99.90;;;;;;4974241;28;20512;-69
2022/08/30 08:05:53;;;;;;;0.63;0.63;;;20.20;99.90;;;;;;4973600;28;20655;-70
2022/08/30 08:08:20;;;;;;;0.70;0.70;;;20.50;99.90;;;;;;4970108;28;20478;-70
2022/08/30 08:10:47;;;;;;;0.50;0.50;;;20.50;99.90;;;;;;4973715;28;20496;-70
2022/08/30 08:13:14;;;;;;;0.53;0.53;;;20.60;99.90;;;;;;4974360;28;20508;-70
2022/08/30 08:15:41;;;;;;;0.50;0.50;;;20.40;99.90;;;;;;4973824;28;20472;-69
2022/08/30 08:18:07;;;;;;;0.30;0.30;;;20.30;99.90;;;;;;4972411;28;20464;-70
2022/08/30 08:20:36;;;;;;;0.30;0.30;;;20.30;99.90;;;;;;4962834;28;20814;-70
2022/08/30 08:23:02;;;;;;;0.53;0.53;;;20.20;99.90;;;;;;4954642;28;20464;-70
2022/08/30 08:25:29;;;;;;;0.23;0.23;;;20.20;99.90;;;;;;4954662;28;20501;-70
2022/08/30 08:27:56;;;;;;;0.37;0.37;;;20.40;99.90;;;;;;4957980;28;20465;-70
2022/08/30 08:30:23;;;;;;;0.70;0.70;;;20.40;99.90;;;;;;4972275;28;20470;-70
2022/08/30 08:32:51;;;;;;;0.33;0.33;;;20.50;99.90;;;;;;4954706;28;20564;-70
2022/08/30 08:35:18;;;;;;;0.53;0.53;;;20.70;99.90;;;;;;4954210;28;20549;-70
2022/08/30 08:37:46;;;;;;;0.40;0.40;;;20.70;99.90;;;;;;4955699;28;20831;-70
2022/08/30 08:40:17;;;;;;;0.37;0.37;;;20.60;99.90;;;;;;4973671;28;20491;-69
2022/08/30 08:42:59;;;;;;;0.33;0.33;;;20.60;99.90;;;;;;4954536;28;20699;-70
2022/08/30 08:45:37;;;;;;;0.30;0.30;;;20.70;99.90;;;;;;4953907;28;20920;-71
2022/08/30 08:48:10;;;;;;;0.47;0.47;;;20.70;99.90;;;;;;4957892;28;20480;-70
2022/08/30 08:53:33;;;;;;;0.90;0.37;;;20.70;99.90;;;;;;4961712;28;20481;-69
2022/08/30 08:53:34;;;;;;;0.40;0.40;;;20.80;99.90;;;;;;4953636;28;21065;-69
2022/08/30 08:56:03;;;;;;;0.40;0.40;;;20.80;99.90;;;;;;4954071;28;20851;-69
2022/08/30 08:58:37;;;;;;;0.50;0.50;;;20.80;99.90;;;;;;4961024;28;20484;-69
2022/08/30 09:01:03;;;;;;;0.97;0.63;;;20.70;99.90;;;;;;4966167;28;20485;-69
2022/08/30 09:03:31;;;;;;;0.40;0.40;;;20.70;99.90;;;;;;4954228;28;20997;-69
2022/08/30 09:05:58;;;;;;;1.50;0.60;;;20.80;99.90;;;;;;4953778;28;20601;-69
2022/08/30 09:08:27;;;;;;;1.43;0.50;;;20.80;99.90;;;;;;4959597;28;20524;-69
2022/08/30 09:10:57;;;;;;;0.40;0.40;;;20.80;99.90;;;;;;4967498;28;20555;-69
2022/08/30 09:13:25;;;;;;;0.30;0.30;;;20.90;99.90;;;;;;4962434;28;20469;-69
2022/08/30 09:15:53;;;;;;;1.60;0.47;;;20.90;99.90;;;;;;4959446;28;20464;-69
2022/08/30 09:18:20;;;;;;;0.50;0.50;;;20.90;99.90;;;;;;4957518;28;20492;-69
2022/08/30 09:20:49;;;;;;;0.40;0.40;;;20.90;99.90;;;;;;4959570;28;20493;-69
2022/08/30 09:23:35;;;;;;;0.77;0.37;;;20.90;99.90;;;;;;4960942;28;20827;-69
2022/08/30 09:26:04;;;;;;;0.40;0.40;;;20.80;99.90;;;;;;4953595;28;20476;-69
2022/08/30 09:28:34;;;;;;;0.40;0.40;;;20.80;99.90;;;;;;4959653;28;20548;-70
2022/08/30 09:31:04;;;;;;;0.30;0.30;;;20.60;99.90;;;;;;4966082;28;20489;-69
2022/08/30 09:33:32;;;;;;;0.50;0.50;;;20.50;99.90;;;;;;4953190;28;20500;-69
2022/08/30 09:36:12;;;;;;;1.33;1.33;;;20.50;99.90;;;;;;4971847;28;20475;-68
2022/08/30 09:38:41;;;;;;;0.40;0.40;;;20.40;99.90;;;;;;4960733;28;20491;-69
2022/08/30 09:41:26;;;;;;;0.50;0.50;;;20.30;99.90;;;;;;4965054;28;20498;-69
2022/08/30 09:44:05;;;;;;;0.40;0.40;;;20.20;99.90;;;;;;4953164;28;20470;-69
2022/08/30 09:46:32;;;;;;;0.43;0.43;;;20.20;99.90;;;;;;4953029;28;20472;-68
2022/08/30 09:48:59;;;;;;;0.70;0.70;;;20.10;99.90;;;;;;4962650;28;20860;-69
2022/08/30 09:51:48;;;;;;;0.50;0.50;;;20.20;99.90;;;;;;4962443;28;20483;-70
2022/08/30 09:54:25;;;;;;;0.50;0.50;;;20.10;99.90;;;;;;4953128;28;20469;-70
2022/08/30 09:57:02;;;;;;;0.33;0.33;;;20.20;99.90;;;;;;4953000;28;20479;-70
2022/08/30 09:59:41;;;;;;;0.63;0.63;;;20.30;99.90;;;;;;4965855;28;20498;-70
2022/08/30 10:02:23;;;;;;;0.50;0.50;;;20.40;99.90;;;;;;4957002;28;20489;-70
2022/08/30 10:04:57;;;;;;;1.43;0.50;;;20.50;99.90;;;;;;4953612;28;20468;-70
2022/08/30 10:07:30;;;;;;;0.40;0.40;;;20.60;99.90;;;;;;4953271;28;20968;-70
2022/08/30 10:10:04;;;;;;;0.30;0.30;;;20.70;99.90;;;;;;4964121;28;20473;-69
2022/08/30 10:12:38;;;;;;;0.40;0.40;;;20.80;99.90;;;;;;4954080;28;20862;-69
2022/08/30 10:15:14;;;;;;;0.20;0.20;;;20.80;99.90;;;;;;4987372;23;20491;-72
2022/08/30 10:17:48;;;;;;;0.43;0.43;;;20.80;99.90;;;;;;4955717;28;20568;-73
2022/08/30 10:20:23;;;;;;;0.40;0.40;;;20.80;99.90;;;;;;4953443;28;20489;-73
2022/08/30 10:22:56;;;;;;;0.60;0.60;;;20.90;99.90;;;;;;4953808;28;20469;-74
2022/08/30 10:25:28;;;;;;;0.30;0.30;;;21.10;99.90;;;;;;4949949;28;20529;-73
2022/08/30 10:28:00;;;;;;;0.37;0.37;;;21.20;99.90;;;;;;4947680;29;20462;-73
2022/08/30 10:30:30;;;;;;;0.30;0.30;;;21.20;99.90;;;;;;4953618;28;20845;-73
2022/08/30 10:33:04;;;;;;;0.20;0.20;;;21.30;99.90;;;;;;4953047;28;20473;-73
2022/08/30 10:35:37;;;;;;;0.30;0.30;;;21.40;99.90;;;;;;4950547;28;20501;-73
2022/08/30 10:38:09;;;;;;;0.30;0.30;;;21.40;99.90;;;;;;4945135;28;20813;-73
2022/08/30 10:43:32;;;;;;;0.43;0.43;;;21.40;99.90;;;;;;4953516;29;20457;-73
2022/08/30 10:46:02;;;;;;;0.50;0.50;;;21.50;99.90;;;;;;4945569;28;20512;-73
2022/08/30 10:48:35;;;;;;;0.40;0.40;;;21.50;99.90;;;;;;4942790;29;20526;-73
2022/08/30 10:51:08;;;;;;;0.30;0.30;;;21.70;99.90;;;;;;4933203;29;20462;-73
2022/08/30 10:53:41;;;;;;;0.40;0.40;;;21.80;99.90;;;;;;4933962;29;20977;-73
2022/08/30 10:56:11;;;;;;;0.83;0.70;;;21.90;99.90;;;;;;4941908;29;20487;-73
2022/08/30 10:58:39;;;;;;;0.40;0.40;;;21.90;99.90;;;;;;4952268;29;20462;-73
2022/08/30 11:01:25;;;;;;;0.53;0.50;;;22.00;99.90;;;;;;4948866;28;20496;-73
2022/08/30 11:04:22;;;;;;;2.10;0.60;;;22.20;99.90;;;;;;4945113;29;20778;-73
2022/08/30 11:06:58;;;;;;;0.50;0.50;;;22.40;99.90;;;;;;4945171;29;20478;-73
2022/08/30 11:09:43;;;;;;;0.73;0.27;;;22.50;99.90;;;;;;4952042;28;20467;-73
2022/08/30 11:12:27;;;;;;;0.40;0.40;;;22.50;99.90;;;;;;4951207;28;20470;-73
2022/08/30 11:14:55;;;;;;;0.20;0.20;;;22.50;99.90;;;;;;4945819;28;20952;-73
2022/08/30 11:17:25;;;;;;;0.40;0.40;;;22.40;99.90;;;;;;4955088;28;20947;-74
2022/08/30 11:19:54;;;;;;;0.40;0.40;;;22.10;99.90;;;;;;4953776;28;21001;-73
2022/08/30 11:22:24;;;;;;;0.30;0.30;;;22.00;99.90;;;;;;4953791;28;20473;-73
2022/08/30 11:25:07;;;;;;;0.50;0.50;;;22.00;99.90;;;;;;4951078;29;20490;-73
2022/08/30 11:27:48;;;;;;;0.30;0.30;;;22.00;99.90;;;;;;4958233;28;20557;-73
2022/08/30 11:30:47;;;;;;;0.43;0.43;;;21.60;99.90;;;;;;4957216;28;20470;-73
2022/08/30 11:33:44;;;;;;;0.70;0.43;;;21.50;99.90;;;;;;4951556;28;20461;-73
2022/08/30 11:36:12;;;;;;;0.77;0.77;;;21.50;99.90;;;;;;4958736;28;20466;-73
2022/08/30 11:39:02;;;;;;;0.30;0.30;;;21.60;99.90;;;;;;4947333;28;20492;-73
2022/08/30 11:41:33;;;;;;;0.40;0.40;;;21.70;99.90;;;;;;4947365;29;21245;-71
2022/08/30 11:44:30;;;;;;;0.30;0.30;;;21.70;99.90;;;;;;4947333;28;20934;-72
2022/08/30 11:46:58;;;;;;;0.30;0.30;;;21.90;99.90;;;;;;4953562;28;20974;-72
2022/08/30 11:49:54;;;;;;;0.20;0.20;;;21.80;99.90;;;;;;4959774;28;20492;-73
2022/08/30 11:52:35;;;;;;;0.50;0.50;;;21.80;99.90;;;;;;4952524;29;20546;-72
2022/08/30 11:55:26;;;;;;;0.50;0.50;;;21.80;99.90;;;;;;4959356;28;20857;-72
2022/08/30 11:58:00;;;;;;;0.33;0.33;;;21.80;99.90;;;;;;4955791;28;21263;-72
2022/08/30 12:00:33;;;;;;;0.40;0.40;;;21.70;99.90;;;;;;4953944;28;20492;-73
2022/08/30 12:03:02;;;;;;;0.30;0.30;;;21.60;99.90;;;;;;4949346;28;20469;-73
2022/08/30 12:05:49;;;;;;;0.40;0.40;;;21.60;99.90;;;;;;4946616;28;20567;-73
2022/08/30 12:08:43;;;;;;;0.40;0.40;;;21.60;99.90;;;;;;4955431;28;20474;-73
2022/08/30 12:11:40;;;;;;;0.30;0.30;;;21.70;99.90;;;;;;4944690;29;20815;-73
2022/08/30 12:14:07;;;;;;;0.43;0.43;;;21.70;99.90;;;;;;4950227;28;20485;-72
2022/08/30 12:18:26;;;;;;;0.30;0.30;;;21.70;99.90;;;;;;4955324;28;20461;-72
2022/08/30 12:19:29;;;;;;;0.50;0.50;;;21.60;99.90;;;;;;4954696;29;20461;-72
2022/08/30 12:21:58;;;;;;;0.20;0.20;;;21.60;99.90;;;;;;4952976;28;20508;-72
2022/08/30 12:24:28;;;;;;;0.60;0.60;;;21.50;99.90;;;;;;4937364;28;20574;-72
2022/08/30 12:26:57;;;;;;;0.60;0.60;;;21.50;99.90;;;;;;4935389;29;20475;-73
2022/08/30 12:29:25;;;;;;;0.33;0.33;;;21.40;99.90;;;;;;4934942;29;20862;-72
2022/08/30 12:31:55;;;;;;;0.37;0.30;;;21.40;99.90;;;;;;4945203;29;20494;-76
2022/08/30 12:34:25;;;;;;;0.20;0.20;;;21.40;99.90;;;;;;4954205;29;20835;-72
2022/08/30 12:36:59;;;;;;;0.30;0.30;;;21.50;99.90;;;;;;4954435;28;20465;-72
2022/08/30 12:39:28;;;;;;;0.40;0.40;;;21.50;99.90;;;;;;4954284;28;20487;-72
2022/08/30 12:41:56;;;;;;;0.33;0.33;;;21.60;99.90;;;;;;4947552;28;20506;-72
2022/08/30 12:44:26;;;;;;;0.80;0.80;;;21.70;99.90;;;;;;4945075;29;21165;-72
2022/08/30 12:46:57;;;;;;;0.20;0.20;;;21.60;99.90;;;;;;4954420;28;20473;-72
2022/08/30 12:49:27;;;;;;;0.40;0.40;;;21.60;99.90;;;;;;4938257;28;20829;-72
2022/08/30 12:51:55;;;;;;;0.47;0.47;;;21.70;99.90;;;;;;4943347;29;20474;-72
2022/08/30 12:54:26;;;;;;;0.50;0.50;;;21.70;99.90;;;;;;4951829;29;20481;-73
2022/08/30 12:56:58;;;;;;;0.30;0.30;;;21.80;99.90;;;;;;4954598;28;20490;-74
2022/08/30 12:59:56;;;;;;;0.80;0.50;;;21.80;99.90;;;;;;4953924;28;20486;-73
2022/08/30 13:02:26;;;;;;;0.40;0.40;;;21.90;99.90;;;;;;4911313;29;20491;-73
2022/08/30 13:04:55;;;;;;;0.60;0.60;;;21.90;99.90;;;;;;4926303;29;20513;-73
2022/08/30 13:07:29;;;;;;;0.40;0.40;;;22.00;99.90;;;;;;4934769;29;20489;-73
2022/08/30 13:10:13;;;;;;;0.60;0.60;;;22.20;99.90;;;;;;4935004;29;20479;-73
2022/08/30 13:12:56;;;;;;;0.87;0.87;;;22.10;99.90;;;;;;4950397;29;20475;-72
2022/08/30 13:15:31;;;;;;;0.40;0.40;;;22.00;99.90;;;;;;4934456;29;20842;-72
2022/08/30 13:18:20;;;;;;;0.73;0.73;;;21.90;99.90;;;;;;4934842;29;20975;-72
2022/08/30 13:20:46;;;;;;;0.20;0.20;;;21.90;99.90;;;;;;4938226;29;20966;-71
2022/08/30 13:23:22;;;;;;;0.50;0.50;;;21.90;99.90;;;;;;4945976;28;20521;-71
2022/08/30 13:25:49;;;;;;;0.40;0.40;;;21.90;99.90;;;;;;4934401;29;20490;-71
2022/08/30 13:28:15;;;;;;;0.80;0.80;;;21.70;99.90;;;;;;4934461;29;20467;-71
2022/08/30 13:30:42;;;;;;;0.50;0.50;;;21.70;99.90;;;;;;4936738;29;20469;-71
2022/08/30 13:33:10;;;;;;;0.50;0.50;;;21.70;99.90;;;;;;4946175;28;20467;-71
2022/08/30 13:35:38;;;;;;;3.90;0.80;;;21.50;99.90;;;;;;4952519;29;20485;-70
2022/08/30 13:38:05;;;;;;;0.47;0.47;;;21.40;99.90;;;;;;4945509;28;20478;-70
2022/08/30 13:40:32;;;;;;;4.53;0.70;;;21.40;99.90;;;;;;4935044;29;21146;-71
2022/08/30 13:42:59;;;;;;;1.37;0.67;;;21.40;99.90;;;;;;4947267;28;20477;-72
2022/08/30 13:45:25;;;;;;;1.07;0.73;;;21.40;99.90;;;;;;4951034;29;20489;-71
2022/08/30 13:47:52;;;;;;;0.50;0.50;;;21.50;99.90;;;;;;4953239;28;20469;-71
2022/08/30 13:50:19;;;;;;;0.33;0.33;;;21.50;99.90;;;;;;4951763;28;20477;-71
2022/08/30 13:52:47;;;;;;;0.43;0.43;;;21.50;99.90;;;;;;4951299;29;20481;-71
2022/08/30 13:55:13;;;;;;;0.50;0.50;;;21.60;99.90;;;;;;4945252;28;20493;-71
2022/08/30 13:57:40;;;;;;;2.67;0.50;;;21.60;99.90;;;;;;4934220;29;20477;-73
2022/08/30 14:00:11;;;;;;;0.83;0.67;;;21.80;99.90;;;;;;4933361;29;20467;-71
2022/08/30 14:02:38;;;;;;;0.60;0.60;;;21.80;99.90;;;;;;4940791;29;20535;-70
2022/08/30 14:05:06;;;;;;;0.93;0.33;;;21.70;99.90;;;;;;4944618;28;20482;-71
2022/08/30 14:07:34;;;;;;;0.73;0.60;;;21.80;99.90;;;;;;4953229;28;20465;-71
2022/08/30 14:10:02;;;;;;;0.70;0.70;;;21.90;99.90;;;;;;4940948;28;20470;-71
2022/08/30 14:12:29;;;;;;;0.40;0.40;;;22.00;99.90;;;;;;4940278;29;20471;-71
2022/08/30 14:14:55;;;;;;;0.50;0.50;;;22.10;99.90;;;;;;4944430;28;20487;-71
2022/08/30 14:17:28;;;;;;;0.60;0.60;;;22.20;99.90;;;;;;4952557;28;20950;-71
2022/08/30 14:19:55;;;;;;;0.50;0.50;;;22.10;99.90;;;;;;4952921;28;20482;-71
2022/08/30 14:22:21;;;;;;;0.30;0.30;;;22.20;99.90;;;;;;4950702;28;20876;-70
2022/08/30 14:24:48;;;;;;;0.50;0.50;;;22.20;99.90;;;;;;4944678;28;20600;-71
2022/08/30 14:27:16;;;;;;;0.50;0.50;;;22.20;99.90;;;;;;4952762;28;20478;-71
2022/08/30 14:29:43;;;;;;;0.37;0.37;;;22.10;99.90;;;;;;4952240;28;20492;-71
2022/08/30 14:32:10;;;;;;;0.30;0.30;;;22.10;99.90;;;;;;4952029;28;20473;-71
2022/08/30 14:34:36;;;;;;;0.63;0.63;;;22.00;99.90;;;;;;4944691;28;20936;-70
2022/08/30 14:37:05;;;;;;;0.30;0.30;;;22.00;99.90;;;;;;4952496;28;20470;-71
2022/08/30 14:39:32;;;;;;;0.77;0.77;;;22.10;99.90;;;;;;4952620;28;20493;-71
2022/08/30 14:41:59;;;;;;;0.50;0.50;;;22.10;99.90;;;;;;4951883;28;20484;-71
2022/08/30 14:44:27;;;;;;;0.40;0.40;;;22.10;99.90;;;;;;4945147;28;20487;-70
2022/08/30 14:46:54;;;;;;;0.40;0.40;;;22.10;99.90;;;;;;4952646;28;20474;-71
2022/08/30 14:49:22;;;;;;;0.70;0.70;;;22.10;99.90;;;;;;4952644;28;20480;-71
2022/08/30 14:51:49;;;;;;;1.20;0.93;;;22.10;99.90;;;;;;4953214;28;20467;-70
2022/08/30 14:54:18;;;;;;;1.40;0.40;;;22.10;99.90;;;;;;4948081;28;20486;-70
2022/08/30 14:56:44;;;;;;;0.40;0.40;;;22.20;99.90;;;;;;4956021;28;20984;-70
2022/08/30 14:59:11;;;;;;;0.40;0.40;;;22.20;99.90;;;;;;4945125;28;20947;-71
2022/08/30 15:01:40;;;;;;;0.50;0.50;;;22.30;99.90;;;;;;4937044;29;20490;-71
2022/08/30 15:04:09;;;;;;;3.60;0.30;;;22.30;99.90;;;;;;4948402;29;20995;-72
2022/08/30 15:06:37;;;;;;;0.30;0.30;;;22.40;99.90;;;;;;4955122;29;20453;-71
2022/08/30 15:09:04;;;;;;;0.60;0.60;;;22.30;99.90;;;;;;4956059;28;20781;-71
2022/08/30 15:11:31;;;;;;;0.40;0.40;;;22.10;99.90;;;;;;4955892;28;20457;-71
2022/08/30 15:13:58;;;;;;;0.37;0.37;;;22.00;99.90;;;;;;4949077;28;20477;-71
2022/08/30 15:16:28;;;;;;;0.40;0.40;;;22.00;99.90;;;;;;4953580;29;20462;-71
2022/08/30 15:18:57;;;;;;;0.40;0.40;;;21.90;99.90;;;;;;4956059;28;20465;-70
2022/08/30 15:21:25;;;;;;;0.40;0.40;;;21.80;99.90;;;;;;4955305;28;20518;-71
2022/08/30 15:23:53;;;;;;;0.70;0.70;;;21.80;99.90;;;;;;4952452;28;20493;-70
2022/08/30 15:26:20;;;;;;;0.70;0.60;;;21.70;99.90;;;;;;4947642;28;20473;-71
2022/08/30 15:28:47;;;;;;;0.40;0.40;;;21.70;99.90;;;;;;4955894;28;20497;-70
2022/08/30 15:31:14;;;;;;;0.57;0.57;;;21.70;99.90;;;;;;4955214;28;20461;-71
2022/08/30 15:33:41;;;;;;;0.30;0.30;;;21.60;99.90;;;;;;4950765;28;20592;-71
2022/08/30 15:36:10;;;;;;;0.70;0.70;;;21.60;99.90;;;;;;4950750;29;20489;-71
2022/08/30 15:38:36;;;;;;;0.37;0.37;;;21.50;99.90;;;;;;4943573;28;20824;-71
2022/08/30 15:41:05;;;;;;;0.60;0.60;;;21.50;99.90;;;;;;4936010;29;21011;-71
2022/08/30 15:43:32;;;;;;;0.50;0.50;;;21.40;99.90;;;;;;4948340;29;20462;-71
2022/08/30 15:46:17;;;;;;;0.30;0.30;;;21.50;99.90;;;;;;4949524;28;20600;-71
2022/08/30 15:48:45;;;;;;;0.57;0.50;;;21.60;99.90;;;;;;4955514;28;20837;-71
2022/08/30 15:51:15;;;;;;;0.47;0.47;;;21.70;99.90;;;;;;4954988;28;21014;-71
2022/08/30 15:53:42;;;;;;;0.40;0.40;;;21.80;99.90;;;;;;4950474;28;20477;-70
2022/08/30 15:56:10;;;;;;;0.30;0.30;;;21.70;99.90;;;;;;4951286;29;20475;-71
2022/08/30 15:58:37;;;;;;;0.37;0.37;;;21.50;99.90;;;;;;4955498;28;20476;-72
2022/08/30 16:01:04;;;;;;;0.50;0.50;;;21.50;99.90;;;;;;4954516;28;20472;-72
2022/08/30 16:03:31;;;;;;;0.90;0.60;;;21.50;99.90;;;;;;4950403;28;20839;-72
2022/08/30 16:05:58;;;;;;;0.40;0.40;;;21.40;99.90;;;;;;4949267;29;20488;-72
2022/08/30 16:08:27;;;;;;;0.30;0.30;;;21.30;99.90;;;;;;4955339;28;20835;-72
2022/08/30 16:10:54;;;;;;;0.40;0.40;;;21.20;99.90;;;;;;4936630;28;20958;-71
2022/08/30 16:13:21;;;;;;;0.30;0.30;;;21.10;99.90;;;;;;4947364;29;20835;-70
2022/08/30 16:15:48;;;;;;;1.40;0.33;;;21.10;99.90;;;;;;4947952;29;20872;-71
2022/08/30 16:18:15;;;;;;;0.43;0.43;;;21.00;99.90;;;;;;4955028;28;20467;-71
2022/08/30 16:20:42;;;;;;;0.57;0.57;;;21.00;99.90;;;;;;4954925;28;20472;-71
2022/08/30 16:23:09;;;;;;;0.30;0.30;;;20.90;99.90;;;;;;4953706;28;21057;-70
2022/08/30 16:25:38;;;;;;;0.20;0.20;;;21.00;99.90;;;;;;4944358;28;20496;-71
2022/08/30 16:28:04;;;;;;;0.40;0.40;;;21.00;99.90;;;;;;4936081;29;20848;-71
2022/08/30 16:30:31;;;;;;;0.20;0.20;;;21.00;99.90;;;;;;4935276;29;20555;-71
2022/08/30 16:32:58;;;;;;;0.57;0.57;;;20.90;99.90;;;;;;4944671;29;20475;-70
2022/08/30 16:35:24;;;;;;;0.33;0.33;;;20.70;99.90;;;;;;4946241;28;20491;-71
2022/08/30 16:37:51;;;;;;;0.50;0.50;;;20.60;99.90;;;;;;4954426;28;20874;-71
2022/08/30 16:40:18;;;;;;;0.33;0.33;;;20.50;99.90;;;;;;4954621;28;20476;-73
2022/08/30 16:42:46;;;;;;;0.40;0.40;;;20.40;99.90;;;;;;4953472;28;20512;-72
2022/08/30 16:45:13;;;;;;;0.60;0.60;;;20.30;99.90;;;;;;4945801;28;20484;-72
2022/08/30 16:47:40;;;;;;;0.60;0.60;;;20.20;99.90;;;;;;4954063;28;20472;-72
2022/08/30 16:50:09;;;;;;;0.30;0.30;;;20.10;99.90;;;;;;4954070;28;20474;-72
2022/08/30 16:52:36;;;;;;;0.30;0.30;;;20.00;99.90;;;;;;4952799;28;20495;-71
2022/08/30 16:55:03;;;;;;;0.30;0.30;;;19.90;99.90;;;;;;4946346;28;20495;-72
2022/08/30 16:57:30;;;;;;;0.30;0.30;;;19.90;99.90;;;;;;4954347;28;20471;-72
2022/08/30 16:59:58;;;;;;;0.30;0.30;;;19.80;99.90;;;;;;4937816;28;20476;-71
2022/08/30 17:02:25;;;;;;;0.40;0.40;;;19.80;99.90;;;;;;4938802;29;20503;-71
2022/08/30 17:04:51;;;;;;;0.23;0.23;;;19.80;99.90;;;;;;4945690;28;20491;-72
2022/08/30 17:07:18;;;;;;;0.43;0.43;;;19.80;99.90;;;;;;4953679;28;20467;-72